EGUP weather

RAF Sculthorpe
Fakeham, England, United Kingdom

Public forecast

Using degrees Celsius for public forecast. Weather courtesy of forecast.io.

Closest aviation weather report (METAR) to RAF Sculthorpe

Closest report is RAF Marham, 14.3 nm (26.4 km) SSW. Retrieved 2020/04/02 23:50 UTC (40 minutes ago):

EGYM 022350Z AUTO 28011KT 9999 NCD 06/00 Q1013

Closest aviation forecast (TAF) to RAF Sculthorpe

Forecast is more than 12 hours old.

Closest forecast is RAF Marham, 14.3 nm (26.4 km) SSW. Retrieved 2020/02/10 06:03 UTC (2 months ago):

TAF EGYM 101706Z 1006/1018 CNL